Portada
METAR-TAF:

METAR-TAF

Aeroports :

Odiham, Anglaterra

latitud: 51-14N, longitud: 000-57W, altitud: 123 m

Observació

L'informe es va fer fa 31 minuts, a les 12:50 UTC
Vent 15 kt del Sud-Oest
Temperatura 19°C
Humitat 68%
Pressió 1022 hPa
Visibilitat 10 km o més
Núvols disperses a una alçada de 3200 ft
Cel ennuvolat a una alçada de 5500 ft

METAR: EGVO 211250Z 22015KT 9999 SCT032 BKN055 19/13 Q1022 RMK BLU

Hora: 14:21 (13:21 UTC)


TAF: manca

Observacions i pronòstics meteorològics de més de 4000 aeroports (METAR i TAF).

Les estacions disponibles són els punts grocs i vermells al mapa.

Posi el ratolí al punt desitjat per veure el nom de l'estació.

Feu clic per veure les observacions i els pronòstics meteorològics.

Per canviar el mapa: feu clic els botons verds amb una creu de color negre per apropar; al botó verd amb un guió per allunyar la imatge; o en les fletxes verdes per a mapes adjacents.


METAR-TAF: